sensor_id;sensor_type;location;lat;lon;timestamp;temperature;humidity
4314;DHT22;2170;48.794;9.182;2024-03-07T00:01:55;7.00;99.90
4314;DHT22;2170;48.794;9.182;2024-03-07T00:04:23;7.00;99.90
4314;DHT22;2170;48.794;9.182;2024-03-07T00:06:50;6.90;99.90
4314;DHT22;2170;48.794;9.182;2024-03-07T00:09:16;6.90;99.90
4314;DHT22;2170;48.794;9.182;2024-03-07T00:11:44;7.00;99.90
4314;DHT22;2170;48.794;9.182;2024-03-07T00:14:10;6.90;99.90
4314;DHT22;2170;48.794;9.182;2024-03-07T00:16:37;6.90;99.90
4314;DHT22;2170;48.794;9.182;2024-03-07T00:19:04;7.00;99.90
4314;DHT22;2170;48.794;9.182;2024-03-07T00:21:32;6.90;99.90
4314;DHT22;2170;48.794;9.182;2024-03-07T00:23:58;6.90;99.90
4314;DHT22;2170;48.794;9.182;2024-03-07T00:26:26;6.90;99.90
4314;DHT22;2170;48.794;9.182;2024-03-07T00:28:53;6.80;99.90
4314;DHT22;2170;48.794;9.182;2024-03-07T00:31:19;6.80;99.90
4314;DHT22;2170;48.794;9.182;2024-03-07T00:33:47;6.80;99.90
4314;DHT22;2170;48.794;9.182;2024-03-07T00:36:13;6.70;99.90
4314;DHT22;2170;48.794;9.182;2024-03-07T00:38:42;6.70;99.90
4314;DHT22;2170;48.794;9.182;2024-03-07T00:41:09;6.70;99.90
4314;DHT22;2170;48.794;9.182;2024-03-07T00:43:36;6.70;99.90
4314;DHT22;2170;48.794;9.182;2024-03-07T00:46:03;6.70;99.90
4314;DHT22;2170;48.794;9.182;2024-03-07T00:48:32;6.60;99.90
4314;DHT22;2170;48.794;9.182;2024-03-07T00:50:58;6.60;99.90
4314;DHT22;2170;48.794;9.182;2024-03-07T00:53:25;6.60;99.90
4314;DHT22;2170;48.794;9.182;2024-03-07T00:55:53;6.60;99.90
4314;DHT22;2170;48.794;9.182;2024-03-07T00:58:20;6.60;99.90
4314;DHT22;2170;48.794;9.182;2024-03-07T01:00:46;6.70;99.90
4314;DHT22;2170;48.794;9.182;2024-03-07T01:03:13;6.60;99.90
4314;DHT22;2170;48.794;9.182;2024-03-07T01:05:40;6.60;99.90
4314;DHT22;2170;48.794;9.182;2024-03-07T01:08:07;6.60;99.90
4314;DHT22;2170;48.794;9.182;2024-03-07T01:10:33;6.60;99.90
4314;DHT22;2170;48.794;9.182;2024-03-07T01:13:02;6.60;99.90
4314;DHT22;2170;48.794;9.182;2024-03-07T01:15:32;6.50;99.90
4314;DHT22;2170;48.794;9.182;2024-03-07T01:17:58;6.50;99.90
4314;DHT22;2170;48.794;9.182;2024-03-07T01:20:25;6.40;99.90
4314;DHT22;2170;48.794;9.182;2024-03-07T01:22:52;6.40;99.90
4314;DHT22;2170;48.794;9.182;2024-03-07T01:25:19;6.40;99.90
4314;DHT22;2170;48.794;9.182;2024-03-07T01:27:54;6.40;99.90
4314;DHT22;2170;48.794;9.182;2024-03-07T06:23:14;3.10;99.90
4314;DHT22;2170;48.794;9.182;2024-03-07T10:30:20;8.10;99.90
4314;DHT22;2170;48.794;9.182;2024-03-07T10:33:01;8.10;99.90
4314;DHT22;2170;48.794;9.182;2024-03-07T10:43:23;8.00;99.90
4314;DHT22;2170;48.794;9.182;2024-03-07T10:46:11;7.80;99.90
4314;DHT22;2170;48.794;9.182;2024-03-07T10:48:56;7.80;99.90
4314;DHT22;2170;48.794;9.182;2024-03-07T10:51:42;7.90;99.90
4314;DHT22;2170;48.794;9.182;2024-03-07T10:54:24;8.00;99.90
4314;DHT22;2170;48.794;9.182;2024-03-07T11:03:14;8.20;99.90
4314;DHT22;2170;48.794;9.182;2024-03-07T11:05:56;8.20;99.90
4314;DHT22;2170;48.794;9.182;2024-03-07T11:08:40;8.30;99.90
4314;DHT22;2170;48.794;9.182;2024-03-07T11:11:30;8.10;99.90
4314;DHT22;2170;48.794;9.182;2024-03-07T11:14:03;8.00;99.90
4314;DHT22;2170;48.794;9.182;2024-03-07T11:16:50;8.40;99.90
4314;DHT22;2170;48.794;9.182;2024-03-07T12:32:29;9.00;99.90
4314;DHT22;2170;48.794;9.182;2024-03-07T12:35:16;8.80;99.90
4314;DHT22;2170;48.794;9.182;2024-03-07T12:38:00;8.80;99.90
4314;DHT22;2170;48.794;9.182;2024-03-07T12:40:36;8.90;99.90
4314;DHT22;2170;48.794;9.182;2024-03-07T12:46:06;8.80;99.90
4314;DHT22;2170;48.794;9.182;2024-03-07T12:48:50;8.70;99.90
4314;DHT22;2170;48.794;9.182;2024-03-07T12:51:35;9.00;99.90
4314;DHT22;2170;48.794;9.182;2024-03-07T12:54:23;8.90;99.90
4314;DHT22;2170;48.794;9.182;2024-03-07T12:57:32;8.80;99.90
4314;DHT22;2170;48.794;9.182;2024-03-07T13:24:46;9.10;99.90
4314;DHT22;2170;48.794;9.182;2024-03-07T13:27:24;8.60;99.90
4314;DHT22;2170;48.794;9.182;2024-03-07T13:29:56;8.60;99.90
4314;DHT22;2170;48.794;9.182;2024-03-07T13:32:36;9.00;99.90
4314;DHT22;2170;48.794;9.182;2024-03-07T13:35:11;9.10;99.90
4314;DHT22;2170;48.794;9.182;2024-03-07T13:37:55;9.10;99.90
4314;DHT22;2170;48.794;9.182;2024-03-07T13:40:30;9.10;99.90
4314;DHT22;2170;48.794;9.182;2024-03-07T13:43:10;9.10;99.90
4314;DHT22;2170;48.794;9.182;2024-03-07T13:45:50;8.90;99.90
4314;DHT22;2170;48.794;9.182;2024-03-07T13:48:38;8.90;99.90
4314;DHT22;2170;48.794;9.182;2024-03-07T14:13:02;8.40;99.90
4314;DHT22;2170;48.794;9.182;2024-03-07T15:08:12;9.20;99.90
4314;DHT22;2170;48.794;9.182;2024-03-07T15:20:31;9.10;99.90
4314;DHT22;2170;48.794;9.182;2024-03-07T15:23:16;9.10;99.90
4314;DHT22;2170;48.794;9.182;2024-03-07T15:25:52;9.10;99.90
4314;DHT22;2170;48.794;9.182;2024-03-07T15:28:51;9.10;99.90
4314;DHT22;2170;48.794;9.182;2024-03-07T15:31:31;9.10;99.90
4314;DHT22;2170;48.794;9.182;2024-03-07T15:34:07;9.10;99.90
4314;DHT22;2170;48.794;9.182;2024-03-07T15:36:45;9.10;99.90
4314;DHT22;2170;48.794;9.182;2024-03-07T15:39:22;9.20;99.90
4314;DHT22;2170;48.794;9.182;2024-03-07T15:42:16;9.20;99.90
4314;DHT22;2170;48.794;9.182;2024-03-07T15:44:53;9.20;99.90
4314;DHT22;2170;48.794;9.182;2024-03-07T15:47:30;9.00;99.90
4314;DHT22;2170;48.794;9.182;2024-03-07T15:53:44;9.30;99.90
4314;DHT22;2170;48.794;9.182;2024-03-07T15:56:31;9.30;99.90
4314;DHT22;2170;48.794;9.182;2024-03-07T15:59:46;9.40;99.90
4314;DHT22;2170;48.794;9.182;2024-03-07T16:13:13;8.70;99.90
4314;DHT22;2170;48.794;9.182;2024-03-07T16:16:22;9.00;99.90
4314;DHT22;2170;48.794;9.182;2024-03-07T16:19:25;9.00;99.90
4314;DHT22;2170;48.794;9.182;2024-03-07T16:22:32;8.90;99.90
4314;DHT22;2170;48.794;9.182;2024-03-07T16:25:42;8.90;99.90
4314;DHT22;2170;48.794;9.182;2024-03-07T16:31:46;8.90;99.90
4314;DHT22;2170;48.794;9.182;2024-03-07T16:34:36;8.90;99.90
4314;DHT22;2170;48.794;9.182;2024-03-07T16:37:36;8.90;99.90
4314;DHT22;2170;48.794;9.182;2024-03-07T16:44:46;8.60;99.90
4314;DHT22;2170;48.794;9.182;2024-03-07T17:03:45;8.70;99.90
4314;DHT22;2170;48.794;9.182;2024-03-07T17:06:37;8.60;99.90
4314;DHT22;2170;48.794;9.182;2024-03-07T17:10:02;8.60;99.90
4314;DHT22;2170;48.794;9.182;2024-03-07T17:13:02;8.60;99.90
4314;DHT22;2170;48.794;9.182;2024-03-07T17:15:42;8.50;99.90
4314;DHT22;2170;48.794;9.182;2024-03-07T17:18:16;8.50;99.90
4314;DHT22;2170;48.794;9.182;2024-03-07T17:20:47;8.50;99.90
4314;DHT22;2170;48.794;9.182;2024-03-07T17:23:20;8.10;99.90
4314;DHT22;2170;48.794;9.182;2024-03-07T17:25:55;8.50;99.90
4314;DHT22;2170;48.794;9.182;2024-03-07T17:28:26;8.40;99.90
4314;DHT22;2170;48.794;9.182;2024-03-07T17:30:57;8.40;99.90
4314;DHT22;2170;48.794;9.182;2024-03-07T17:33:26;8.40;99.90
4314;DHT22;2170;48.794;9.182;2024-03-07T17:36:01;8.40;99.90
4314;DHT22;2170;48.794;9.182;2024-03-07T17:38:37;8.60;99.90
4314;DHT22;2170;48.794;9.182;2024-03-07T17:41:14;8.40;99.90
4314;DHT22;2170;48.794;9.182;2024-03-07T17:43:56;8.30;99.90
4314;DHT22;2170;48.794;9.182;2024-03-07T18:07:32;8.10;99.90
4314;DHT22;2170;48.794;9.182;2024-03-07T18:12:59;8.00;99.90
4314;DHT22;2170;48.794;9.182;2024-03-07T18:16:44;7.80;99.90
4314;DHT22;2170;48.794;9.182;2024-03-07T18:19:52;8.00;99.90
4314;DHT22;2170;48.794;9.182;2024-03-07T18:22:54;7.90;99.90
4314;DHT22;2170;48.794;9.182;2024-03-07T18:25:37;7.90;99.90
4314;DHT22;2170;48.794;9.182;2024-03-07T18:28:10;7.90;99.90
4314;DHT22;2170;48.794;9.182;2024-03-07T18:30:50;7.80;99.90
4314;DHT22;2170;48.794;9.182;2024-03-07T18:33:29;7.80;99.90
4314;DHT22;2170;48.794;9.182;2024-03-07T18:36:17;7.80;99.90
4314;DHT22;2170;48.794;9.182;2024-03-07T18:39:04;7.80;99.90
4314;DHT22;2170;48.794;9.182;2024-03-07T18:41:42;8.10;99.90
4314;DHT22;2170;48.794;9.182;2024-03-07T18:44:21;7.70;99.90
4314;DHT22;2170;48.794;9.182;2024-03-07T18:47:00;7.70;99.90
4314;DHT22;2170;48.794;9.182;2024-03-07T18:49:44;7.70;99.90
4314;DHT22;2170;48.794;9.182;2024-03-07T18:52:23;7.70;99.90
4314;DHT22;2170;48.794;9.182;2024-03-07T18:55:00;7.70;99.90
4314;DHT22;2170;48.794;9.182;2024-03-07T18:57:50;7.80;99.90
4314;DHT22;2170;48.794;9.182;2024-03-07T19:00:30;7.70;99.90
4314;DHT22;2170;48.794;9.182;2024-03-07T19:03:18;7.50;99.90
4314;DHT22;2170;48.794;9.182;2024-03-07T19:08:56;7.50;99.90
4314;DHT22;2170;48.794;9.182;2024-03-07T19:11:38;7.50;99.90
4314;DHT22;2170;48.794;9.182;2024-03-07T19:14:17;7.10;99.90
4314;DHT22;2170;48.794;9.182;2024-03-07T19:16:54;7.40;99.90
4314;DHT22;2170;48.794;9.182;2024-03-07T19:19:26;7.40;99.90
4314;DHT22;2170;48.794;9.182;2024-03-07T19:22:00;7.60;99.90
4314;DHT22;2170;48.794;9.182;2024-03-07T19:24:43;7.40;99.90
4314;DHT22;2170;48.794;9.182;2024-03-07T19:27:27;7.30;99.90
4314;DHT22;2170;48.794;9.182;2024-03-07T19:30:09;7.30;99.90
4314;DHT22;2170;48.794;9.182;2024-03-07T19:32:43;7.30;99.90
4314;DHT22;2170;48.794;9.182;2024-03-07T19:35:15;7.30;99.90
4314;DHT22;2170;48.794;9.182;2024-03-07T19:37:55;7.30;99.90
4314;DHT22;2170;48.794;9.182;2024-03-07T19:40:24;7.30;99.90
4314;DHT22;2170;48.794;9.182;2024-03-07T19:42:52;7.30;99.90
4314;DHT22;2170;48.794;9.182;2024-03-07T19:45:20;7.30;99.90
4314;DHT22;2170;48.794;9.182;2024-03-07T19:47:49;7.30;99.90
4314;DHT22;2170;48.794;9.182;2024-03-07T19:50:15;7.20;99.90
4314;DHT22;2170;48.794;9.182;2024-03-07T19:52:42;7.20;99.90
4314;DHT22;2170;48.794;9.182;2024-03-07T19:55:12;7.20;99.90
4314;DHT22;2170;48.794;9.182;2024-03-07T19:57:38;7.20;99.90
4314;DHT22;2170;48.794;9.182;2024-03-07T20:00:10;7.20;99.90
4314;DHT22;2170;48.794;9.182;2024-03-07T20:02:41;7.20;99.90
4314;DHT22;2170;48.794;9.182;2024-03-07T20:05:09;7.20;99.90
4314;DHT22;2170;48.794;9.182;2024-03-07T20:07:36;7.10;99.90
4314;DHT22;2170;48.794;9.182;2024-03-07T20:10:04;7.10;99.90
4314;DHT22;2170;48.794;9.182;2024-03-07T20:12:34;7.10;99.90
4314;DHT22;2170;48.794;9.182;2024-03-07T20:15:02;7.10;99.90
4314;DHT22;2170;48.794;9.182;2024-03-07T20:17:30;7.10;99.90
4314;DHT22;2170;48.794;9.182;2024-03-07T20:19:57;7.10;99.90
4314;DHT22;2170;48.794;9.182;2024-03-07T20:22:23;7.10;99.90
4314;DHT22;2170;48.794;9.182;2024-03-07T20:24:50;7.10;99.90
4314;DHT22;2170;48.794;9.182;2024-03-07T20:27:18;7.00;99.90
4314;DHT22;2170;48.794;9.182;2024-03-07T20:29:45;7.00;99.90
4314;DHT22;2170;48.794;9.182;2024-03-07T20:32:12;7.00;99.90
4314;DHT22;2170;48.794;9.182;2024-03-07T20:34:41;7.00;99.90
4314;DHT22;2170;48.794;9.182;2024-03-07T20:37:08;7.00;99.90
4314;DHT22;2170;48.794;9.182;2024-03-07T20:39:36;7.00;99.90
4314;DHT22;2170;48.794;9.182;2024-03-07T20:42:03;7.00;99.90
4314;DHT22;2170;48.794;9.182;2024-03-07T20:44:30;6.90;99.90
4314;DHT22;2170;48.794;9.182;2024-03-07T20:46:56;6.90;99.90
4314;DHT22;2170;48.794;9.182;2024-03-07T20:49:24;6.90;99.90
4314;DHT22;2170;48.794;9.182;2024-03-07T20:51:52;6.90;99.90
4314;DHT22;2170;48.794;9.182;2024-03-07T20:54:20;6.80;99.90
4314;DHT22;2170;48.794;9.182;2024-03-07T20:56:47;6.80;99.90
4314;DHT22;2170;48.794;9.182;2024-03-07T20:59:16;6.80;99.90
4314;DHT22;2170;48.794;9.182;2024-03-07T21:01:46;6.80;99.90
4314;DHT22;2170;48.794;9.182;2024-03-07T21:04:13;6.70;99.90
4314;DHT22;2170;48.794;9.182;2024-03-07T21:06:42;6.70;99.90
4314;DHT22;2170;48.794;9.182;2024-03-07T21:09:10;6.60;99.90
4314;DHT22;2170;48.794;9.182;2024-03-07T21:11:36;6.60;99.90
4314;DHT22;2170;48.794;9.182;2024-03-07T21:14:03;6.60;99.90
4314;DHT22;2170;48.794;9.182;2024-03-07T21:16:32;6.50;99.90
4314;DHT22;2170;48.794;9.182;2024-03-07T21:18:59;6.50;99.90
4314;DHT22;2170;48.794;9.182;2024-03-07T21:21:26;6.50;99.90
4314;DHT22;2170;48.794;9.182;2024-03-07T21:23:54;6.40;99.90
4314;DHT22;2170;48.794;9.182;2024-03-07T21:26:22;6.40;99.90
4314;DHT22;2170;48.794;9.182;2024-03-07T21:28:48;6.40;99.90
4314;DHT22;2170;48.794;9.182;2024-03-07T21:31:19;6.30;99.90
4314;DHT22;2170;48.794;9.182;2024-03-07T21:33:46;6.30;99.90
4314;DHT22;2170;48.794;9.182;2024-03-07T21:36:12;6.30;99.90
4314;DHT22;2170;48.794;9.182;2024-03-07T21:38:41;6.20;99.90
4314;DHT22;2170;48.794;9.182;2024-03-07T21:41:08;6.20;99.90
4314;DHT22;2170;48.794;9.182;2024-03-07T21:43:37;6.20;99.90
4314;DHT22;2170;48.794;9.182;2024-03-07T21:46:03;6.10;99.90
4314;DHT22;2170;48.794;9.182;2024-03-07T21:48:31;6.10;99.90
4314;DHT22;2170;48.794;9.182;2024-03-07T21:50:58;6.00;99.90
4314;DHT22;2170;48.794;9.182;2024-03-07T21:53:26;6.00;99.90
4314;DHT22;2170;48.794;9.182;2024-03-07T21:55:53;6.00;99.90
4314;DHT22;2170;48.794;9.182;2024-03-07T21:58:21;5.90;99.90
4314;DHT22;2170;48.794;9.182;2024-03-07T22:00:52;5.90;99.90
4314;DHT22;2170;48.794;9.182;2024-03-07T22:03:19;5.90;99.90
4314;DHT22;2170;48.794;9.182;2024-03-07T22:05:46;5.80;99.90
4314;DHT22;2170;48.794;9.182;2024-03-07T22:08:13;5.80;99.90
4314;DHT22;2170;48.794;9.182;2024-03-07T22:10:40;5.80;99.90
4314;DHT22;2170;48.794;9.182;2024-03-07T22:13:07;5.70;99.90
4314;DHT22;2170;48.794;9.182;2024-03-07T22:15:35;5.80;99.90
4314;DHT22;2170;48.794;9.182;2024-03-07T22:18:03;5.70;99.90
4314;DHT22;2170;48.794;9.182;2024-03-07T22:20:30;5.60;99.90
4314;DHT22;2170;48.794;9.182;2024-03-07T22:22:57;5.60;99.90
4314;DHT22;2170;48.794;9.182;2024-03-07T22:25:24;5.60;99.90
4314;DHT22;2170;48.794;9.182;2024-03-07T22:27:51;5.60;99.90
4314;DHT22;2170;48.794;9.182;2024-03-07T22:30:18;5.60;99.90
4314;DHT22;2170;48.794;9.182;2024-03-07T22:32:47;5.60;99.90
4314;DHT22;2170;48.794;9.182;2024-03-07T22:35:15;5.50;99.90
4314;DHT22;2170;48.794;9.182;2024-03-07T22:37:43;5.40;99.90
4314;DHT22;2170;48.794;9.182;2024-03-07T22:40:13;5.40;99.90
4314;DHT22;2170;48.794;9.182;2024-03-07T22:42:39;5.40;99.90
4314;DHT22;2170;48.794;9.182;2024-03-07T22:45:07;5.30;99.90
4314;DHT22;2170;48.794;9.182;2024-03-07T22:47:36;5.20;99.90
4314;DHT22;2170;48.794;9.182;2024-03-07T22:50:03;5.20;99.90
4314;DHT22;2170;48.794;9.182;2024-03-07T22:52:34;5.20;99.90
4314;DHT22;2170;48.794;9.182;2024-03-07T22:55:01;5.10;99.90
4314;DHT22;2170;48.794;9.182;2024-03-07T22:57:31;5.10;99.90
4314;DHT22;2170;48.794;9.182;2024-03-07T22:59:58;5.10;99.90
4314;DHT22;2170;48.794;9.182;2024-03-07T23:02:25;5.30;99.90
4314;DHT22;2170;48.794;9.182;2024-03-07T23:04:52;5.00;99.90
4314;DHT22;2170;48.794;9.182;2024-03-07T23:07:19;5.00;99.90
4314;DHT22;2170;48.794;9.182;2024-03-07T23:09:47;5.00;99.90
4314;DHT22;2170;48.794;9.182;2024-03-07T23:12:15;4.90;99.90
4314;DHT22;2170;48.794;9.182;2024-03-07T23:14:44;4.80;99.90
4314;DHT22;2170;48.794;9.182;2024-03-07T23:17:12;4.80;99.90
4314;DHT22;2170;48.794;9.182;2024-03-07T23:19:41;4.70;99.90
4314;DHT22;2170;48.794;9.182;2024-03-07T23:22:07;4.70;99.90
4314;DHT22;2170;48.794;9.182;2024-03-07T23:24:34;4.70;99.90
4314;DHT22;2170;48.794;9.182;2024-03-07T23:27:03;4.70;99.90
4314;DHT22;2170;48.794;9.182;2024-03-07T23:29:30;4.60;99.90
4314;DHT22;2170;48.794;9.182;2024-03-07T23:31:58;4.60;99.90
4314;DHT22;2170;48.794;9.182;2024-03-07T23:34:25;4.50;99.90
4314;DHT22;2170;48.794;9.182;2024-03-07T23:36:51;4.50;99.90
4314;DHT22;2170;48.794;9.182;2024-03-07T23:39:18;4.50;99.90
4314;DHT22;2170;48.794;9.182;2024-03-07T23:41:45;4.40;99.90
4314;DHT22;2170;48.794;9.182;2024-03-07T23:44:14;4.40;99.90
4314;DHT22;2170;48.794;9.182;2024-03-07T23:46:41;4.40;99.90
4314;DHT22;2170;48.794;9.182;2024-03-07T23:49:08;4.30;99.90
4314;DHT22;2170;48.794;9.182;2024-03-07T23:51:35;4.30;99.90
4314;DHT22;2170;48.794;9.182;2024-03-07T23:54:01;4.30;99.90
4314;DHT22;2170;48.794;9.182;2024-03-07T23:56:30;4.20;99.90
4314;DHT22;2170;48.794;9.182;2024-03-07T23:58:57;4.20;99.90
